Time;durP1;ratioP1;P1;durP2;ratioP2;P2;SDS_P1;SDS_P2;PMS_P1;PMS_P2;Temp;Humidity;BMP_temperature;BMP_pressure;BME280_temperature;BME280_humidity;BME280_pressure;Samples;Min_cycle;Max_cycle;Signal;HPM_P1;HPM_P2
2023/05/12 00:00:51;;;;;;;4.00;3.30;;;;;;;11.09;40.34;101182.14;104010;276;38485;-70
2023/05/12 00:03:26;;;;;;;6.20;3.60;;;;;;;11.08;40.23;101186.88;104031;277;38939;-72
2023/05/12 00:06:03;;;;;;;5.80;3.10;;;;;;;11.05;40.31;101183.81;103789;278;38246;-72
2023/05/12 00:08:37;;;;;;;5.50;3.40;;;;;;;11.04;40.38;101186.98;103999;277;38638;-71
2023/05/12 00:11:15;;;;;;;7.20;3.80;;;;;;;11.03;40.34;101188.93;104047;276;38472;-71
2023/05/12 00:13:50;;;;;;;6.20;3.40;;;;;;;10.99;40.50;101191.83;104006;277;39745;-72
2023/05/12 00:16:24;;;;;;;4.50;3.40;;;;;;;10.97;40.30;101190.34;103970;277;38415;-72
2023/05/12 00:19:02;;;;;;;6.10;3.50;;;;;;;10.95;40.42;101192.30;104067;277;38556;-70
2023/05/12 00:21:36;;;;;;;5.60;3.70;;;;;;;10.93;40.45;101192.02;103980;277;38634;-70
2023/05/12 00:24:11;;;;;;;4.30;3.50;;;;;;;10.91;40.48;101194.34;103809;277;38513;-70
2023/05/12 00:26:46;;;;;;;4.60;3.60;;;;;;;10.90;40.34;101190.16;104060;277;38237;-70
2023/05/12 00:29:28;;;;;;;5.50;3.40;;;;;;;10.87;40.45;101188.84;104059;277;38961;-70
2023/05/12 00:32:00;;;;;;;;;;;;;;;10.83;40.58;101198.88;104098;277;38487;-70
2023/05/12 00:34:36;;;;;;;4.40;3.20;;;;;;;10.77;40.77;101193.63;104027;277;38284;-70
2023/05/12 00:37:12;;;;;;;9.20;4.30;;;;;;;10.76;40.67;101196.80;103997;277;38390;-70
2023/05/12 00:39:46;;;;;;;6.50;3.40;;;;;;;10.73;40.60;101198.63;104069;277;38335;-72
2023/05/12 00:42:20;;;;;;;4.70;3.40;;;;;;;10.71;40.62;101200.61;104025;277;39690;-71
2023/05/12 00:44:54;;;;;;;4.20;3.60;;;;;;;10.68;40.69;101200.84;103908;277;175203;-68
2023/05/12 00:47:29;;;;;;;7.30;3.70;;;;;;;10.66;40.83;101200.56;104035;277;39832;-71
2023/05/12 00:50:08;;;;;;;6.00;3.60;;;;;;;10.65;40.78;101203.90;104023;277;38226;-70
2023/05/12 00:52:44;;;;;;;5.10;3.00;;;;;;;10.63;40.66;101204.29;104014;277;38696;-71
2023/05/12 00:55:22;;;;;;;4.00;3.30;;;;;;;10.61;40.79;101202.94;104024;276;39457;-74
2023/05/12 00:57:57;;;;;;;7.20;3.90;;;;;;;10.59;40.75;101206.30;104013;277;39970;-70
2023/05/12 01:00:31;;;;;;;5.80;3.30;;;;;;;10.56;40.87;101206.20;104051;277;38347;-70
2023/05/12 01:03:08;;;;;;;8.10;3.80;;;;;;;10.55;40.78;101206.39;104035;277;38236;-71
2023/05/12 01:05:49;;;;;;;7.20;3.20;;;;;;;10.52;41.01;101207.17;104036;277;38662;-71
2023/05/12 01:08:23;;;;;;;6.70;3.40;;;;;;;10.51;41.18;101210.70;104034;277;38464;-73
2023/05/12 01:10:59;;;;;;;7.40;3.60;;;;;;;10.50;41.05;101208.10;104040;276;38508;-71
2023/05/12 01:13:41;;;;;;;6.90;3.40;;;;;;;10.48;41.09;101213.73;104036;277;38227;-69
2023/05/12 01:16:18;;;;;;;7.10;3.70;;;;;;;10.45;41.13;101212.75;104042;277;39645;-70
2023/05/12 01:18:52;;;;;;;4.60;3.40;;;;;;;10.44;41.16;101218.89;104056;277;38237;-70
2023/05/12 01:21:29;;;;;;;4.20;3.10;;;;;;;10.41;41.22;101218.25;104053;277;38752;-69
2023/05/12 01:24:07;;;;;;;4.50;3.20;;;;;;;10.40;41.26;101216.19;104077;277;39390;-72
2023/05/12 01:26:45;;;;;;;4.80;3.30;;;;;;;10.37;41.28;101219.59;103858;279;38262;-72
2023/05/12 01:29:25;;;;;;;5.10;3.10;;;;;;;10.33;41.32;101223.50;104040;277;38496;-71
2023/05/12 01:32:02;;;;;;;6.40;3.30;;;;;;;10.30;41.37;101222.70;104027;277;38239;-71
2023/05/12 01:34:38;;;;;;;6.00;3.50;;;;;;;10.29;41.48;101222.73;104060;276;38590;-72
2023/05/12 01:37:13;;;;;;;4.90;3.00;;;;;;;10.26;41.44;101226.25;104022;277;38253;-71
2023/05/12 01:39:49;;;;;;;5.80;2.90;;;;;;;10.23;41.65;101223.54;104090;277;38934;-70
2023/05/12 01:42:23;;;;;;;6.10;3.40;;;;;;;10.20;41.71;101223.25;104038;277;39972;-70
2023/05/12 01:44:59;;;;;;;5.20;3.20;;;;;;;10.18;41.68;101222.25;104070;276;39667;-68
2023/05/12 01:47:36;;;;;;;6.10;3.50;;;;;;;10.15;41.70;101225.79;104015;277;38281;-69
2023/05/12 01:50:11;;;;;;;5.70;3.20;;;;;;;10.12;41.93;101228.66;103845;277;40736;-72
2023/05/12 01:52:46;;;;;;;5.70;3.30;;;;;;;10.09;41.87;101228.70;104070;277;38253;-72
2023/05/12 01:55:22;;;;;;;6.20;3.20;;;;;;;10.06;41.94;101230.17;104040;277;38494;-72
2023/05/12 01:57:58;;;;;;;4.60;3.40;;;;;;;10.02;42.02;101230.80;103447;277;906560;-71
2023/05/12 02:00:32;;;;;;;6.00;3.40;;;;;;;9.97;42.12;101228.81;104070;277;38497;-71
2023/05/12 02:03:09;;;;;;;7.10;3.50;;;;;;;9.92;42.19;101230.48;104100;277;38301;-71
2023/05/12 02:05:48;;;;;;;6.30;3.20;;;;;;;9.88;42.40;101230.76;104055;277;38697;-70
2023/05/12 02:08:23;;;;;;;4.20;3.00;;;;;;;9.84;42.45;101232.05;104025;277;38529;-72
2023/05/12 02:11:09;;;;;;;3.50;2.90;;;;;;;9.82;42.81;101226.33;103997;277;38458;-72
2023/05/12 02:13:44;;;;;;;4.70;3.30;;;;;;;9.80;42.64;101224.11;104031;277;38247;-70
2023/05/12 02:16:18;;;;;;;5.50;3.00;;;;;;;9.78;42.74;101223.13;104057;276;38410;-70
2023/05/12 02:18:52;;;;;;;4.20;3.10;;;;;;;9.75;42.87;101227.70;104044;277;38554;-72
2023/05/12 02:21:27;;;;;;;4.40;3.10;;;;;;;9.74;42.71;101229.31;103811;277;38534;-71
2023/05/12 02:24:01;;;;;;;5.20;3.30;;;;;;;9.71;42.86;101231.11;104002;277;38475;-69
2023/05/12 02:26:35;;;;;;;5.40;3.20;;;;;;;9.67;43.16;101236.40;104035;276;38742;-70
2023/05/12 02:29:11;;;;;;;5.90;3.40;;;;;;;9.65;43.05;101233.15;104018;277;39460;-72
2023/05/12 02:31:47;;;;;;;5.60;3.50;;;;;;;9.63;43.41;101235.98;104031;277;38445;-72
2023/05/12 02:34:21;;;;;;;5.00;3.30;;;;;;;9.60;43.26;101238.31;104000;277;39675;-70
2023/05/12 02:36:55;;;;;;;6.30;3.20;;;;;;;9.57;43.24;101242.88;103989;276;38637;-68
2023/05/12 02:39:29;;;;;;;4.20;3.30;;;;;;;9.54;43.46;101244.52;104070;277;40458;-71
2023/05/12 02:42:04;;;;;;;6.60;3.50;;;;;;;9.50;43.65;101243.55;104056;277;38644;-72
2023/05/12 02:44:37;;;;;;;5.40;3.50;;;;;;;9.48;43.57;101247.24;104086;276;38472;-74
2023/05/12 02:47:12;;;;;;;9.60;3.50;;;;;;;9.46;43.63;101249.38;104046;277;39927;-73
2023/05/12 02:49:48;;;;;;;7.60;4.00;;;;;;;9.43;43.82;101251.00;104090;277;38371;-70
2023/05/12 02:52:22;;;;;;;5.20;3.50;;;;;;;9.41;43.80;101247.20;104031;277;38065;-72
2023/05/12 02:54:57;;;;;;;4.70;3.10;;;;;;;9.40;43.91;101249.50;103413;277;905901;-70
2023/05/12 02:57:33;;;;;;;5.10;3.30;;;;;;;9.37;43.90;101256.16;104061;277;39976;-71
2023/05/12 03:00:15;;;;;;;5.90;3.60;;;;;;;9.35;44.06;101260.90;104012;276;38254;-73
2023/05/12 03:02:52;;;;;;;6.80;3.60;;;;;;;9.32;44.24;101258.52;104036;277;38743;-72
2023/05/12 03:05:28;;;;;;;4.90;3.50;;;;;;;9.31;44.19;101256.81;104059;276;38287;-70
2023/05/12 03:08:05;;;;;;;6.90;3.60;;;;;;;9.29;44.28;101259.45;104026;276;39182;-69
2023/05/12 03:10:42;;;;;;;7.80;3.40;;;;;;;9.28;44.37;101257.20;103830;279;41554;-70
2023/05/12 03:13:18;;;;;;;4.40;3.40;;;;;;;9.28;44.45;101259.30;104054;277;38362;-72
2023/05/12 03:15:54;;;;;;;6.40;3.10;;;;;;;9.26;44.45;101256.71;103993;277;38746;-70
2023/05/12 03:18:31;;;;;;;4.90;3.50;;;;;;;9.27;44.57;101256.52;104038;277;38705;-72
2023/05/12 03:21:05;;;;;;;5.00;3.50;;;;;;;9.29;44.40;101254.73;103986;277;39665;-71
2023/05/12 03:23:44;;;;;;;4.40;3.30;;;;;;;9.31;44.43;101255.23;104043;276;39657;-72
2023/05/12 03:26:19;;;;;;;6.10;4.00;;;;;;;9.34;44.54;101255.54;104070;276;38560;-71
2023/05/12 03:28:55;;;;;;;8.50;3.50;;;;;;;9.36;44.52;101261.59;104039;277;40964;-70
2023/05/12 03:31:29;;;;;;;6.40;3.20;;;;;;;9.39;44.48;101258.22;104005;277;39642;-70
2023/05/12 03:34:03;;;;;;;7.50;3.90;;;;;;;9.43;44.58;101263.20;104056;277;38694;-72
2023/05/12 03:36:39;;;;;;;5.50;3.50;;;;;;;9.47;44.58;101261.91;104049;277;38652;-70
2023/05/12 03:39:15;;;;;;;7.10;3.40;;;;;;;9.54;44.72;101265.06;104099;277;38334;-72
2023/05/12 03:41:49;;;;;;;5.40;3.90;;;;;;;9.88;44.85;101262.29;104010;277;38500;-70
2023/05/12 03:44:25;;;;;;;5.20;2.90;;;;;;;10.61;44.90;101262.59;104050;277;38467;-70
2023/05/12 03:47:03;;;;;;;6.00;3.60;;;;;;;11.61;43.57;101266.47;103989;277;38260;-71
2023/05/12 03:49:43;;;;;;;4.90;3.70;;;;;;;12.55;42.55;101262.30;104067;277;38452;-69
2023/05/12 03:52:18;;;;;;;6.00;3.20;;;;;;;13.50;41.28;101262.61;103475;277;550621;-70
2023/05/12 03:54:53;;;;;;;6.40;3.20;;;;;;;14.36;39.28;101260.60;103994;276;39072;-72
2023/05/12 03:57:27;;;;;;;7.20;3.30;;;;;;;15.10;37.82;101255.65;104000;276;38505;-72
2023/05/12 04:00:03;;;;;;;6.90;3.40;;;;;;;15.91;36.77;101256.66;103700;277;38439;-72
2023/05/12 04:02:37;;;;;;;10.10;3.40;;;;;;;16.59;35.48;101260.80;104024;277;38229;-72
2023/05/12 04:05:17;;;;;;;5.20;3.30;;;;;;;17.24;34.20;101263.92;103731;277;38943;-71
2023/05/12 04:07:55;;;;;;;5.40;3.20;;;;;;;17.50;32.92;101262.00;104002;277;38828;-71
2023/05/12 04:10:32;;;;;;;4.90;2.90;;;;;;;17.11;32.32;101263.89;103992;277;38322;-71
2023/05/12 04:13:07;;;;;;;6.40;3.20;;;;;;;16.52;32.30;101268.75;104004;277;38461;-71
2023/05/12 04:15:41;;;;;;;5.10;3.10;;;;;;;15.97;32.89;101272.73;104024;277;38657;-69
2023/05/12 04:18:25;;;;;;;6.70;3.10;;;;;;;15.48;33.12;101274.73;104029;277;38300;-72
2023/05/12 04:21:06;;;;;;;6.60;3.20;;;;;;;15.02;33.66;101275.67;104021;277;38511;-72
2023/05/12 04:23:41;;;;;;;5.90;3.20;;;;;;;14.69;34.13;101281.41;104050;277;38554;-69
2023/05/12 04:26:15;;;;;;;3.70;2.80;;;;;;;14.37;34.55;101282.15;104053;277;38263;-71
2023/05/12 04:28:50;;;;;;;4.30;3.10;;;;;;;14.07;35.12;101284.86;103926;277;175018;-73
2023/05/12 04:31:27;;;;;;;7.90;3.40;;;;;;;13.83;35.62;101282.98;103411;276;916655;-72
2023/05/12 04:34:06;;;;;;;9.00;3.40;;;;;;;13.63;35.87;101285.83;104079;277;39430;-70
2023/05/12 04:36:44;;;;;;;7.30;3.30;;;;;;;13.49;36.36;101291.73;104024;277;38740;-74
2023/05/12 04:39:24;;;;;;;4.60;3.40;;;;;;;13.42;36.72;101290.04;104052;277;38487;-69
2023/05/12 04:42:00;;;;;;;4.70;3.30;;;;;;;13.41;36.81;101293.07;104065;277;38278;-70
2023/05/12 04:44:46;;;;;;;4.20;2.90;;;;;;;13.41;36.83;101293.08;104024;277;39635;-71
2023/05/12 04:47:20;;;;;;;6.60;3.30;;;;;;;13.57;37.20;101290.77;104071;265;38224;-72
2023/05/12 04:49:54;;;;;;;6.00;3.00;;;;;;;14.22;37.19;101291.67;104069;277;38311;-70
2023/05/12 04:52:30;;;;;;;5.60;3.30;;;;;;;15.34;36.00;101288.89;104027;277;38267;-73
2023/05/12 04:55:08;;;;;;;5.30;2.80;;;;;;;16.44;34.80;101291.13;104060;277;38526;-71
2023/05/12 04:57:44;;;;;;;4.20;3.30;;;;;;;17.78;33.75;101285.79;104009;277;39667;-72
2023/05/12 05:00:22;;;;;;;4.50;3.00;;;;;;;19.03;31.90;101280.37;103841;277;38490;-71
2023/05/12 05:02:57;;;;;;;6.60;2.90;;;;;;;20.14;30.18;101287.46;103816;276;39690;-71
2023/05/12 05:05:31;;;;;;;4.10;2.90;;;;;;;20.99;28.27;101284.24;104048;277;38498;-72
2023/05/12 05:08:06;;;;;;;4.00;3.00;;;;;;;21.69;27.69;101285.14;104065;277;39352;-73
2023/05/12 05:10:40;;;;;;;6.00;3.00;;;;;;;22.37;26.96;101286.52;104048;277;38854;-72
2023/05/12 05:13:16;;;;;;;4.60;2.70;;;;;;;23.23;26.03;101282.96;104087;277;38426;-73
2023/05/12 05:15:57;;;;;;;3.60;2.80;;;;;;;23.88;24.29;101286.06;104066;277;38521;-72
2023/05/12 05:18:40;;;;;;;4.20;2.80;;;;;;;24.40;24.43;101289.23;104054;277;39564;-73
2023/05/12 05:21:17;;;;;;;4.20;2.90;;;;;;;25.16;23.70;101289.36;104053;277;38492;-72
2023/05/12 05:23:55;;;;;;;4.80;2.70;;;;;;;25.64;22.31;101292.38;104021;277;38734;-70
2023/05/12 05:26:34;;;;;;;6.00;2.80;;;;;;;25.66;21.83;101290.77;104049;277;38345;-73
2023/05/12 05:29:09;;;;;;;5.60;2.90;;;;;;;25.73;21.66;101288.65;104013;277;38424;-71
2023/05/12 05:31:47;;;;;;;3.00;2.50;;;;;;;25.80;21.82;101294.74;104031;276;39432;-71
2023/05/12 05:34:24;;;;;;;5.60;3.00;;;;;;;26.10;21.32;101295.83;104003;277;38480;-74
2023/05/12 05:36:58;;;;;;;4.60;3.00;;;;;;;26.23;20.84;101294.08;103993;277;38162;-74
2023/05/12 05:39:33;;;;;;;6.40;3.50;;;;;;;26.33;20.95;101297.34;104061;277;39835;-71
2023/05/12 05:42:12;;;;;;;6.80;2.90;;;;;;;26.54;20.72;101300.48;104051;276;38252;-72
2023/05/12 05:44:47;;;;;;;5.70;2.80;;;;;;;26.67;19.95;101297.73;104059;277;38392;-72
2023/05/12 05:47:21;;;;;;;5.00;2.70;;;;;;;26.63;20.43;101298.23;104058;277;38411;-73
2023/05/12 05:49:55;;;;;;;6.50;2.70;;;;;;;27.01;19.98;101299.73;104063;277;38768;-72
2023/05/12 05:52:31;;;;;;;4.80;2.80;;;;;;;27.54;19.99;101297.52;104034;276;39414;-71
2023/05/12 05:55:17;;;;;;;5.60;2.90;;;;;;;27.83;19.06;101308.85;103935;277;174197;-72
2023/05/12 05:57:57;;;;;;;5.30;2.70;;;;;;;28.08;19.53;101306.67;104063;277;38247;-72
2023/05/12 06:00:34;;;;;;;3.30;2.40;;;;;;;28.46;18.61;101307.77;104032;277;38504;-71
2023/05/12 06:03:09;;;;;;;6.20;2.80;;;;;;;28.49;18.57;101312.90;104024;277;39427;-72
2023/05/12 06:05:44;;;;;;;6.50;2.70;;;;;;;28.92;18.90;101307.55;103843;277;38751;-72
2023/05/12 06:08:25;;;;;;;6.60;2.60;;;;;;;29.30;18.11;101312.13;104083;277;38366;-71
2023/05/12 06:10:59;;;;;;;4.70;2.30;;;;;;;29.51;17.93;101305.58;103404;276;888278;-71
2023/05/12 06:13:36;;;;;;;6.60;3.00;;;;;;;29.69;17.85;101309.20;103819;279;38332;-74
2023/05/12 06:16:11;;;;;;;8.20;2.40;;;;;;;29.88;17.52;101312.00;104050;277;38474;-73
2023/05/12 06:18:50;;;;;;;6.80;2.50;;;;;;;29.60;17.01;101313.86;104012;277;38471;-75
2023/05/12 06:21:26;;;;;;;4.70;2.70;;;;;;;29.45;17.04;101314.32;104033;277;39391;-77
2023/05/12 06:24:01;;;;;;;3.50;2.80;;;;;;;29.46;17.51;101313.72;104098;277;38281;-71
2023/05/12 06:26:36;;;;;;;5.90;2.40;;;;;;;29.75;17.37;101316.59;104006;277;39396;-72
2023/05/12 06:29:11;;;;;;;4.90;2.50;;;;;;;30.13;17.23;101315.38;104022;277;38399;-74
2023/05/12 06:31:46;;;;;;;5.20;2.60;;;;;;;30.36;16.92;101313.58;104049;277;39560;-73
2023/05/12 06:34:20;;;;;;;6.30;2.70;;;;;;;30.67;16.36;101320.13;104068;277;38744;-73
2023/05/12 06:36:56;;;;;;;3.30;2.40;;;;;;;30.66;16.12;101324.08;103803;277;39460;-73
2023/05/12 06:39:31;;;;;;;6.10;2.30;;;;;;;30.40;16.28;101318.78;104064;277;38230;-72
2023/05/12 06:42:14;;;;;;;7.40;2.50;;;;;;;30.45;16.34;101321.86;104063;277;38413;-74
2023/05/12 06:44:52;;;;;;;6.00;2.70;;;;;;;30.54;16.43;101321.23;103931;277;174071;-71
2023/05/12 06:47:29;;;;;;;4.20;2.30;;;;;;;30.63;16.27;101322.59;104051;277;39359;-72
2023/05/12 06:50:04;;;;;;;5.30;2.40;;;;;;;30.57;16.12;101324.26;104026;276;38539;-71
2023/05/12 06:52:41;;;;;;;2.50;2.10;;;;;;;30.62;16.38;101325.21;103813;278;39492;-73
2023/05/12 06:55:19;;;;;;;3.60;2.10;;;;;;;30.62;15.95;101331.65;104002;277;39181;-73
2023/05/12 06:57:54;;;;;;;3.40;2.30;;;;;;;30.20;15.91;101324.51;103831;277;40408;-72
2023/05/12 07:00:30;;;;;;;3.10;2.00;;;;;;;29.76;16.68;101319.23;104025;276;38382;-73
2023/05/12 07:03:05;;;;;;;4.00;2.10;;;;;;;29.88;16.95;101323.54;104132;277;38327;-72
2023/05/12 07:05:40;;;;;;;5.10;2.10;;;;;;;30.02;16.73;101326.52;104033;277;39451;-73
2023/05/12 07:08:14;;;;;;;4.70;2.20;;;;;;;30.18;16.50;101328.10;103916;277;173914;-73
2023/05/12 07:10:51;;;;;;;5.10;2.60;;;;;;;30.04;16.45;101323.61;104011;277;39441;-73
2023/05/12 07:13:25;;;;;;;4.60;2.00;;;;;;;29.81;16.40;101327.71;104046;277;38596;-72
2023/05/12 07:16:02;;;;;;;4.10;2.10;;;;;;;29.54;16.84;101319.48;104045;265;38422;-72
2023/05/12 07:18:39;;;;;;;7.70;2.10;;;;;;;29.85;17.09;101323.80;104081;277;39501;-74
2023/05/12 07:21:16;;;;;;;3.50;1.90;;;;;;;29.96;16.83;101323.63;104080;277;39423;-74
2023/05/12 07:23:57;;;;;;;3.50;2.10;;;;;;;29.95;16.97;101327.53;103872;277;38601;-73
2023/05/12 07:26:35;;;;;;;3.80;2.00;;;;;;;29.98;16.95;101321.79;103366;277;886340;-73
2023/05/12 07:29:11;;;;;;;6.50;2.50;;;;;;;30.34;16.59;101328.19;104070;277;38517;-72
2023/05/12 07:31:50;;;;;;;2.70;2.00;;;;;;;30.23;16.37;101319.89;103908;277;187267;-72
2023/05/12 07:34:26;;;;;;;2.80;1.90;;;;;;;30.32;16.44;101321.59;104038;277;39070;-71
2023/05/12 07:37:05;;;;;;;3.90;1.80;;;;;;;30.56;16.35;101322.02;104015;277;38464;-73
2023/05/12 07:39:41;;;;;;;3.10;2.00;;;;;;;30.61;16.10;101322.82;104041;277;39686;-71
2023/05/12 07:42:17;;;;;;;5.30;2.30;;;;;;;30.50;15.61;101319.85;104057;277;38799;-71
2023/05/12 07:44:56;;;;;;;4.70;2.00;;;;;;;30.45;15.58;101325.07;104059;277;38215;-71
2023/05/12 07:47:31;;;;;;;3.40;1.90;;;;;;;30.08;15.64;101324.31;104004;277;38998;-72
2023/05/12 07:50:07;;;;;;;4.90;2.10;;;;;;;30.02;15.82;101322.23;104022;277;39981;-73
2023/05/12 07:52:48;;;;;;;6.60;1.70;;;;;;;30.12;15.72;101330.93;103994;277;39707;-71
2023/05/12 07:55:25;;;;;;;5.20;1.60;;;;;;;29.99;15.40;101329.20;104031;277;38555;-73
2023/05/12 07:58:02;;;;;;;4.10;1.90;;;;;;;29.99;15.67;101325.48;104031;277;39491;-74
2023/05/12 08:00:36;;;;;;;5.10;1.70;;;;;;;30.35;15.50;101333.48;104048;277;38316;-73
2023/05/12 08:03:10;;;;;;;4.40;2.00;;;;;;;30.47;15.03;101330.98;103936;277;174050;-75
2023/05/12 08:05:45;;;;;;;6.70;1.90;;;;;;;30.38;14.46;101332.31;103845;277;38798;-74
2023/05/12 08:08:22;;;;;;;3.60;1.80;;;;;;;30.09;14.70;101329.73;103786;277;38362;-74
2023/05/12 08:10:57;;;;;;;4.70;1.90;;;;;;;30.30;15.08;101328.45;104025;277;39366;-73
2023/05/12 08:13:33;;;;;;;5.60;2.10;;;;;;;30.46;14.23;101331.94;103404;277;887411;-74
2023/05/12 08:16:09;;;;;;;3.30;2.10;;;;;;;30.24;14.19;101330.03;104018;277;38601;-73
2023/05/12 08:18:43;;;;;;;4.50;1.90;;;;;;;29.97;14.46;101333.23;104046;277;39389;-75
2023/05/12 08:21:22;;;;;;;3.70;1.60;;;;;;;29.97;14.45;101331.58;103911;276;187297;-74
2023/05/12 08:23:58;;;;;;;4.70;1.80;;;;;;;30.14;14.23;101333.20;103796;277;38253;-74
2023/05/12 08:26:36;;;;;;;5.40;1.90;;;;;;;29.93;13.43;101338.33;103987;277;38280;-75
2023/05/12 08:29:10;;;;;;;3.60;1.90;;;;;;;29.57;14.02;101333.61;104058;277;39326;-75
2023/05/12 08:31:45;;;;;;;2.90;2.00;;;;;;;29.49;14.18;101336.36;103805;277;40834;-74
2023/05/12 08:34:19;;;;;;;5.10;2.10;;;;;;;29.39;14.23;101338.84;103857;277;39476;-75
2023/05/12 08:37:00;;;;;;;3.90;2.00;;;;;;;29.26;14.51;101332.65;103797;277;38387;-76
2023/05/12 08:39:35;;;;;;;5.00;2.20;;;;;;;29.53;15.09;101329.02;104051;277;39536;-72
2023/05/12 08:42:23;;;;;;;2.80;1.80;;;;;;;29.77;14.36;101325.73;104018;277;39220;-73
2023/05/12 08:44:58;;;;;;;5.50;1.80;;;;;;;29.89;14.38;101322.34;103839;277;40024;-74
2023/05/12 08:47:34;;;;;;;4.60;2.10;;;;;;;30.12;13.90;101321.16;104054;277;38363;-73
2023/05/12 08:50:14;;;;;;;5.80;2.00;;;;;;;30.20;13.78;101332.08;104066;277;39533;-72
2023/05/12 08:52:51;;;;;;;4.10;2.10;;;;;;;30.20;13.92;101319.60;104022;277;39627;-73
2023/05/12 08:55:28;;;;;;;3.90;1.90;;;;;;;30.42;13.29;101323.98;103832;277;39429;-76
2023/05/12 08:58:08;;;;;;;7.50;1.90;;;;;;;30.47;13.64;101315.43;104055;277;38503;-74
2023/05/12 09:00:42;;;;;;;2.80;1.60;;;;;;;30.67;13.75;101320.91;104003;277;38855;-72
2023/05/12 09:03:21;;;;;;;5.70;2.30;;;;;;;30.72;12.89;101321.06;104027;325;40039;-73
2023/05/12 09:05:57;;;;;;;5.60;2.20;;;;;;;30.56;13.34;101320.44;104048;277;39444;-73
2023/05/12 09:08:33;;;;;;;7.50;2.10;;;;;;;30.30;13.20;101314.55;104071;277;39002;-72
2023/05/12 09:11:08;;;;;;;5.20;2.00;;;;;;;29.88;13.45;101318.45;103994;277;38401;-74
2023/05/12 09:13:50;;;;;;;3.90;1.90;;;;;;;29.46;13.93;101312.98;103816;277;38347;-73
2023/05/12 09:16:28;;;;;;;4.20;2.50;;;;;;;29.24;14.32;101316.29;103791;278;38887;-75
2023/05/12 09:19:06;;;;;;;4.50;1.90;;;;;;;28.93;14.26;101318.75;103828;277;39357;-71
2023/05/12 09:21:40;;;;;;;;;;;;;;;28.42;14.31;101318.55;103867;277;41288;-72
2023/05/12 09:24:19;;;;;;;5.90;1.80;;;;;;;27.69;14.46;101320.14;104043;277;38433;-70
2023/05/12 09:26:56;;;;;;;5.20;2.30;;;;;;;27.13;14.78;101328.55;103839;278;38629;-70
2023/05/12 09:29:31;;;;;;;3.30;1.80;;;;;;;26.52;15.10;101323.59;104134;277;38233;-76
2023/05/12 09:32:11;;;;;;;3.20;1.80;;;;;;;25.90;15.72;101324.39;103708;277;38811;-77
2023/05/12 09:34:53;;;;;;;3.70;2.10;;;;;;;25.53;15.90;101315.47;104027;277;38365;-72
2023/05/12 09:37:39;;;;;;;3.90;2.30;;;;;;;25.19;16.15;101324.23;104032;277;39679;-71
2023/05/12 09:40:18;;;;;;;6.10;2.20;;;;;;;24.78;16.53;101326.91;103812;277;38881;-72
2023/05/12 09:42:52;;;;;;;4.30;1.80;;;;;;;24.58;16.97;101319.55;104078;276;38237;-73
2023/05/12 09:45:31;;;;;;;8.10;2.00;;;;;;;24.50;17.20;101323.89;104033;277;39019;-74
2023/05/12 09:48:14;;;;;;;2.80;1.80;;;;;;;24.41;17.29;101320.36;104035;265;38267;-74
2023/05/12 09:53:47;;;;;;;5.00;2.10;;;;;;;24.15;17.72;101321.02;104018;277;39673;-74
2023/05/12 09:56:21;;;;;;;3.30;1.80;;;;;;;23.96;17.89;101314.16;104063;277;38531;-72
2023/05/12 09:58:56;;;;;;;4.50;2.00;;;;;;;23.86;17.82;101308.14;104055;277;39459;-73
2023/05/12 10:01:33;;;;;;;4.50;2.10;;;;;;;23.79;18.17;101309.44;104024;277;38825;-71
2023/05/12 10:04:10;;;;;;;8.50;2.20;;;;;;;23.72;18.65;101301.31;104036;277;38217;-75
2023/05/12 10:06:46;;;;;;;4.40;2.00;;;;;;;23.69;18.25;101305.23;104013;277;39100;-73
2023/05/12 10:09:26;;;;;;;6.00;2.00;;;;;;;23.44;18.33;101310.17;104004;277;38220;-74
2023/05/12 10:12:01;;;;;;;3.80;2.00;;;;;;;23.19;18.75;101308.70;104043;277;38972;-73
2023/05/12 10:14:37;;;;;;;4.10;1.70;;;;;;;23.16;18.78;101309.81;104059;277;38249;-75
2023/05/12 10:17:11;;;;;;;4.20;2.50;;;;;;;23.11;18.75;101303.29;104056;277;40161;-73
2023/05/12 10:19:45;;;;;;;5.30;2.00;;;;;;;23.10;18.94;101307.80;103761;279;39306;-73
2023/05/12 10:22:20;;;;;;;4.00;2.30;;;;;;;23.05;18.76;101304.80;104032;277;38501;-72
2023/05/12 10:24:54;;;;;;;5.70;1.90;;;;;;;22.90;18.59;101314.11;103909;277;171579;-74
2023/05/12 10:27:32;;;;;;;3.00;1.70;;;;;;;22.75;18.65;101306.45;103994;277;39402;-75
2023/05/12 10:30:13;;;;;;;6.30;2.10;;;;;;;22.63;18.98;101306.81;104069;277;38415;-73
2023/05/12 10:32:56;;;;;;;4.80;2.30;;;;;;;22.53;19.45;101293.01;103969;277;174603;-75
2023/05/12 10:35:38;;;;;;;4.00;1.80;;;;;;;22.51;19.72;101300.09;104026;277;38900;-73
2023/05/12 10:38:16;;;;;;;3.20;1.80;;;;;;;22.45;19.81;101299.95;104067;277;39403;-73
2023/05/12 10:41:02;;;;;;;3.50;2.00;;;;;;;22.38;19.95;101296.92;104005;277;39177;-73
2023/05/12 10:43:44;;;;;;;5.60;2.20;;;;;;;22.27;19.86;101286.18;104079;277;38219;-72
2023/05/12 10:46:26;;;;;;;4.70;1.80;;;;;;;22.23;19.86;101290.76;104059;265;38338;-72
2023/05/12 10:49:03;;;;;;;5.50;2.00;;;;;;;22.12;19.65;101299.85;104007;277;38253;-73
2023/05/12 10:51:50;;;;;;;2.20;1.80;;;;;;;22.02;20.43;101297.71;104053;277;38822;-72
2023/05/12 10:54:28;;;;;;;6.40;1.90;;;;;;;22.03;20.33;101299.25;103910;277;174625;-73
2023/05/12 10:57:03;;;;;;;3.40;1.90;;;;;;;22.00;20.31;101282.05;104015;277;38515;-71
2023/05/12 10:59:38;;;;;;;5.70;1.90;;;;;;;22.01;20.66;101281.43;103382;277;897739;-73
2023/05/12 11:02:18;;;;;;;4.50;2.50;;;;;;;22.00;20.49;101285.45;104024;277;39710;-73
2023/05/12 11:04:55;;;;;;;4.80;1.80;;;;;;;21.91;20.51;101288.91;104065;277;38924;-71
2023/05/12 11:07:33;;;;;;;5.10;2.60;;;;;;;21.85;20.56;101289.17;103775;277;39059;-72
2023/05/12 11:10:12;;;;;;;2.90;2.10;;;;;;;21.70;20.72;101286.83;104112;277;39963;-71
2023/05/12 11:12:52;;;;;;;5.20;2.10;;;;;;;21.56;20.72;101284.39;104063;277;38236;-74
2023/05/12 11:15:31;;;;;;;4.70;2.10;;;;;;;21.48;20.68;101288.19;104059;277;38242;-75
2023/05/12 11:18:07;;;;;;;3.70;2.10;;;;;;;21.38;21.06;101276.63;103939;277;174620;-76
2023/05/12 11:20:42;;;;;;;5.10;2.00;;;;;;;21.44;21.29;101286.55;103989;275;38242;-75
2023/05/12 11:23:27;;;;;;;3.90;2.10;;;;;;;21.46;20.97;101281.94;104019;277;39399;-73
2023/05/12 11:26:01;;;;;;;4.30;1.80;;;;;;;21.43;20.98;101282.34;104016;277;38268;-72
2023/05/12 11:28:45;;;;;;;4.50;2.00;;;;;;;21.39;21.08;101279.98;104067;277;38484;-71
2023/05/12 11:31:23;;;;;;;6.40;1.90;;;;;;;21.30;20.93;101295.96;104049;277;38854;-70
2023/05/12 11:34:08;;;;;;;4.50;2.30;;;;;;;21.20;21.11;101284.06;103855;279;40045;-74
2023/05/12 11:36:47;;;;;;;3.30;1.80;;;;;;;21.21;21.12;101284.70;103820;277;39625;-72
2023/05/12 11:39:24;;;;;;;5.20;2.30;;;;;;;21.20;20.84;101284.81;104021;277;38474;-74
2023/05/12 11:42:04;;;;;;;4.30;1.70;;;;;;;21.22;20.78;101276.67;104044;277;38316;-74
2023/05/12 11:44:46;;;;;;;3.70;1.80;;;;;;;21.18;20.95;101277.10;104032;277;38584;-70
2023/05/12 11:47:23;;;;;;;2.50;2.00;;;;;;;21.23;21.32;101267.89;104063;277;38484;-72
2023/05/12 11:50:03;;;;;;;3.60;1.70;;;;;;;21.31;21.46;101266.96;104057;277;38309;-73
2023/05/12 11:52:39;;;;;;;3.50;2.10;;;;;;;21.38;21.09;101282.89;103551;277;462289;-74
2023/05/12 11:55:19;;;;;;;4.10;2.00;;;;;;;21.38;21.40;101268.48;104015;277;38465;-73
2023/05/12 11:58:04;;;;;;;4.60;1.90;;;;;;;21.48;21.61;101272.21;104046;277;38695;-72
2023/05/12 12:00:38;;;;;;;6.60;1.80;;;;;;;21.47;20.95;101275.84;104012;277;38496;-73
2023/05/12 12:03:14;;;;;;;5.20;1.90;;;;;;;21.26;21.10;101279.95;104019;277;38396;-73
2023/05/12 12:06:00;;;;;;;5.60;2.20;;;;;;;21.09;21.00;101271.52;104010;277;39419;-73
2023/05/12 12:08:37;;;;;;;3.90;1.80;;;;;;;20.98;21.12;101280.73;104090;277;38244;-73
2023/05/12 12:11:12;;;;;;;3.00;1.80;;;;;;;20.83;21.16;101275.05;104062;277;38766;-72
2023/05/12 12:13:56;;;;;;;4.00;2.00;;;;;;;20.79;21.36;101278.31;103954;277;188938;-73